Airfield :
LOGIN :

Register | Disclaimer

   EN    FR    IT 

 










Legend :    VFR   Marginal VFR   IFR   Intensive IFR   Very Intensive IFR
Visi :
Ceiling :
>= 8 km
>= 3000ft
5 to 8 km
1000 to 3000 ft
1500m to 5 km
500 to 1000 ft
800 to 1500m
200 to 500 ft
< 800m
< 200 ft
Symbols :   Thunderstorms  Fog  Heavy snow  Heavy precipitations  Wind > 20 kt
SIGMETs :     Misc.  Thunderstorms  Icing  Turbulence  Mountain Waves  Volcanic Ashes






- Airport Elevation : 1017 ft


LFSL - Brive Souillac

CURRENT METAR :
  • 211500Z AUTO 20008KT 160V240 9999 -RA FEW039 BKN045 OVC052 11/07 Q1003 TEMPO 4000 SHRA BKN015 FEW025TCU

EXPIRED METARs :
  • 211430Z AUTO 18006KT 150V210 9999 ///TCU 13/06 Q1002 TEMPO 4000 SHRA
  • 211400Z AUTO 18009KT 140V210 CAVOK 13/06 Q1003 TEMPO 4000 SHRA BECMG SCT020TCU BKN040
  • 211330Z AUTO 17008KT 140V200 CAVOK 13/06 Q1002 TEMPO 4000 SHRA BECMG SCT020TCU BKN040
  • 211300Z AUTO 18010KT 150V210 CAVOK 13/06 Q1003 TEMPO 4000 SHRA BECMG SCT020TCU BKN040
  • 211230Z AUTO 18012KT 140V200 CAVOK 12/06 Q1004 TEMPO 4000 SHRA BECMG SCT020TCU BKN040
  • 211200Z AUTO 17007KT 130V210 9999 FEW038 12/07 Q1004 BECMG SCT020TCU BKN040

TAF TAF LFSL
Valid from the 21 at 15:00 until the 22 at 00:00 UTC


211400Z 2115/2124 19008KT 9999 SCT025 BKN050
TEMPO 2115/2120 4000 SHRA BKN015 FEW025TCU



MET'MAP, your aeronautical weather chart ! - Copyright ORBIFLY December 2007 - Disclaimer

ORBIFLY MET'MAP TEAM :

Programming & Development : Alexandra Zaïnal
Concept & original design : Baudouin d'Aumeries
Assistance for programming : Marc-Olivier Méhu
Technical & hardware support : Manuel Goepfert

Contact : metmap@orbifly.com




SOURCES & CREDITS :

   NOAA